Weather at Tarama Airport

Public forecast

Using degrees Celsius for public forecast. Weather courtesy of forecast.io.

Closest aviation weather report (METAR) to Tarama Airport

Closest report is Shimojishima Airport, 27.6 nm (51.2 km) ENE. Retrieved 2020/12/01 04:00 UTC (51 minutes ago):

RORS 010400Z 04023KT 9999 -RA FEW022 SCT032 BKN040 22/18 Q1020

Closest aviation forecast (TAF) to Tarama Airport

Closest forecast is Ishigaki Airport, 32.5 nm (60.2 km) SW. Retrieved UTC (0 seconds ago):